createdAt,value
2017-08-02T00:00:43.973Z,23.30
2017-08-02T00:03:11.509Z,23.20
2017-08-02T00:05:39.075Z,23.30
2017-08-02T00:08:06.627Z,23.30
2017-08-02T00:10:34.166Z,23.20
2017-08-02T00:13:02.488Z,23.20
2017-08-02T00:15:30.055Z,23.20
2017-08-02T00:17:57.596Z,23.20
2017-08-02T00:20:25.178Z,23.20
2017-08-02T00:22:52.740Z,23.20
2017-08-02T00:25:20.307Z,23.30
2017-08-02T00:27:47.854Z,23.30
2017-08-02T00:30:15.369Z,23.30
2017-08-02T00:32:43.697Z,23.40
2017-08-02T00:35:11.265Z,23.30
2017-08-02T00:37:38.845Z,23.40
2017-08-02T00:40:06.368Z,23.40
2017-08-02T00:42:33.941Z,23.40
2017-08-02T00:45:01.457Z,23.40
2017-08-02T00:47:29.012Z,23.30
2017-08-02T00:49:56.542Z,23.30
2017-08-02T00:52:24.101Z,23.30
2017-08-02T00:54:51.614Z,23.30
2017-08-02T00:57:19.174Z,23.30
2017-08-02T00:59:46.714Z,23.30
2017-08-02T01:02:14.993Z,23.30
2017-08-02T01:04:43.349Z,23.30
2017-08-02T01:07:10.866Z,23.30
2017-08-02T01:09:38.394Z,23.30
2017-08-02T01:12:05.930Z,23.30
2017-08-02T01:14:33.474Z,23.40
2017-08-02T01:17:00.978Z,23.30
2017-08-02T01:19:28.522Z,23.40
2017-08-02T01:21:56.078Z,23.40
2017-08-02T01:24:23.662Z,23.30
2017-08-02T01:26:51.222Z,23.30
2017-08-02T01:29:18.751Z,23.20
2017-08-02T01:31:47.111Z,23.20
2017-08-02T01:34:14.758Z,23.20
2017-08-02T01:36:42.334Z,23.10
2017-08-02T01:39:09.924Z,23.10
2017-08-02T01:41:38.242Z,23.10
2017-08-02T01:44:05.759Z,23.10
2017-08-02T01:46:33.293Z,23.20
2017-08-02T01:49:00.852Z,23.20
2017-08-02T01:51:28.385Z,23.10
2017-08-02T01:53:55.944Z,23.20
2017-08-02T01:56:23.534Z,23.10
2017-08-02T01:58:51.075Z,23.10
2017-08-02T02:01:18.622Z,23.10
2017-08-02T02:03:46.189Z,23.20
2017-08-02T02:06:13.745Z,23.10
2017-08-02T02:08:41.354Z,23.10
2017-08-02T02:11:09.660Z,23.20
2017-08-02T02:13:37.222Z,23.20
2017-08-02T02:16:04.802Z,23.00
2017-08-02T02:18:32.340Z,23.10
2017-08-02T02:20:59.903Z,23.20
2017-08-02T02:23:27.441Z,23.20
2017-08-02T02:25:55.021Z,23.20
2017-08-02T02:28:22.561Z,23.10
2017-08-02T02:30:50.099Z,23.20
2017-08-02T02:33:17.656Z,23.10
2017-08-02T02:35:45.194Z,23.10
2017-08-02T02:38:12.758Z,23.20
2017-08-02T02:40:40.361Z,23.10
2017-08-02T02:43:08.663Z,23.20
2017-08-02T02:45:36.286Z,23.20
2017-08-02T02:48:03.845Z,23.20
2017-08-02T02:50:31.368Z,23.30
2017-08-02T02:52:58.887Z,23.20
2017-08-02T02:55:26.481Z,23.20
2017-08-02T02:57:54.010Z,23.20
2017-08-02T03:00:21.596Z,23.10
2017-08-02T03:02:49.103Z,23.10
2017-08-02T03:05:16.719Z,23.10
2017-08-02T03:07:44.255Z,23.20
2017-08-02T03:10:11.790Z,23.10
2017-08-02T03:12:40.133Z,23.10
2017-08-02T03:15:07.655Z,23.10
2017-08-02T03:17:35.184Z,23.10
2017-08-02T03:20:03.500Z,22.90
2017-08-02T03:22:31.022Z,22.80
2017-08-02T03:24:59.314Z,22.70
2017-08-02T03:27:27.614Z,22.50
2017-08-02T03:29:55.147Z,22.50
2017-08-02T03:32:23.459Z,22.40
2017-08-02T03:34:50.988Z,22.40
2017-08-02T03:37:19.300Z,22.00
2017-08-02T03:39:47.602Z,22.10
2017-08-02T03:42:15.162Z,22.10
2017-08-02T03:44:42.667Z,21.90
2017-08-02T03:47:10.220Z,21.60
2017-08-02T03:49:38.506Z,21.60
2017-08-02T03:52:06.883Z,21.60
2017-08-02T03:54:34.444Z,21.60
2017-08-02T03:57:02.730Z,22.00
2017-08-02T03:59:30.275Z,22.00
2017-08-02T04:01:58.571Z,22.10
2017-08-02T04:04:26.130Z,22.10
2017-08-02T04:06:53.643Z,22.30
2017-08-02T04:09:21.182Z,22.20
2017-08-02T04:11:48.714Z,22.10
2017-08-02T04:14:16.266Z,22.10
2017-08-02T04:16:43.790Z,22.10
2017-08-02T04:19:11.325Z,22.20
2017-08-02T04:21:38.854Z,22.50
2017-08-02T04:24:06.419Z,22.70
2017-08-02T04:26:33.934Z,23.00
2017-08-02T04:29:02.260Z,23.20
2017-08-02T04:31:29.812Z,23.20
2017-08-02T04:33:57.365Z,23.20
2017-08-02T04:36:24.898Z,23.30
2017-08-02T04:38:53.170Z,23.40
2017-08-02T04:41:21.512Z,23.40
2017-08-02T04:43:49.023Z,23.30
2017-08-02T04:46:17.339Z,23.30
2017-08-02T04:48:44.861Z,23.30
2017-08-02T04:51:13.162Z,23.50
2017-08-02T04:53:40.663Z,23.40
2017-08-02T04:56:08.203Z,23.50
2017-08-02T04:58:35.717Z,23.50
2017-08-02T05:01:03.250Z,23.50
2017-08-02T05:03:30.776Z,23.60
2017-08-02T05:05:58.394Z,23.60
2017-08-02T05:08:25.913Z,23.60
2017-08-02T05:10:53.433Z,23.60
2017-08-02T05:13:21.019Z,23.70
2017-08-02T05:15:48.546Z,23.80
2017-08-02T05:18:16.104Z,23.90
2017-08-02T05:20:43.667Z,23.90
2017-08-02T05:23:11.203Z,24.00
2017-08-02T05:25:38.737Z,24.00
2017-08-02T05:28:06.292Z,24.00
2017-08-02T05:30:33.862Z,24.00
2017-08-02T05:33:01.417Z,24.00
2017-08-02T05:35:28.976Z,24.10
2017-08-02T05:37:56.494Z,24.20
2017-08-02T05:40:24.026Z,24.20
2017-08-02T05:42:51.562Z,24.20
2017-08-02T05:45:19.101Z,24.20
2017-08-02T05:47:46.635Z,24.30
2017-08-02T05:50:14.199Z,24.30
2017-08-02T05:52:41.734Z,24.30
2017-08-02T05:55:09.299Z,24.30
2017-08-02T05:57:36.823Z,24.20
2017-08-02T06:00:04.380Z,24.20
2017-08-02T06:02:31.932Z,24.20
2017-08-02T06:04:59.504Z,24.20
2017-08-02T06:07:27.054Z,24.20
2017-08-02T06:09:54.628Z,24.30
2017-08-02T06:12:22.154Z,24.30
2017-08-02T06:14:49.689Z,24.20
2017-08-02T06:17:17.255Z,24.30
2017-08-02T06:19:44.783Z,24.20
2017-08-02T06:22:12.404Z,24.20
2017-08-02T06:24:39.932Z,24.30
2017-08-02T06:27:07.488Z,24.30
2017-08-02T06:29:35.029Z,24.30
2017-08-02T06:32:02.582Z,24.20
2017-08-02T06:34:30.902Z,24.30
2017-08-02T06:36:58.423Z,24.30
2017-08-02T06:39:26.723Z,24.30
2017-08-02T06:41:54.300Z,24.30
2017-08-02T06:44:21.853Z,24.30
2017-08-02T06:46:49.422Z,24.30
2017-08-02T06:49:17.034Z,24.40
2017-08-02T06:51:45.336Z,24.50
2017-08-02T06:54:12.878Z,24.50
2017-08-02T06:56:41.201Z,24.60
2017-08-02T06:59:08.750Z,24.60
2017-08-02T07:01:36.267Z,24.70
2017-08-02T07:04:04.636Z,24.80
2017-08-02T07:06:32.166Z,24.80
2017-08-02T07:08:59.722Z,24.80
2017-08-02T07:11:27.221Z,24.80
2017-08-02T07:13:54.881Z,24.90
2017-08-02T07:16:22.415Z,25.00
2017-08-02T07:18:49.950Z,25.00
2017-08-02T07:21:17.570Z,25.00
2017-08-02T07:23:45.858Z,25.10
2017-08-02T07:26:13.466Z,25.00
2017-08-02T07:28:40.978Z,25.10
2017-08-02T07:31:08.537Z,25.20
2017-08-02T07:33:36.050Z,25.70
2017-08-02T07:36:03.623Z,26.50
2017-08-02T07:38:31.146Z,27.30
2017-08-02T07:40:58.736Z,27.80
2017-08-02T07:43:26.278Z,27.80
2017-08-02T07:45:53.862Z,27.80
2017-08-02T07:48:21.403Z,27.30
2017-08-02T07:50:48.979Z,26.80
2017-08-02T07:53:16.534Z,26.60
2017-08-02T07:55:44.114Z,26.30
2017-08-02T07:58:11.641Z,27.00
2017-08-02T08:00:39.261Z,27.50
2017-08-02T08:03:07.586Z,27.90
2017-08-02T08:05:35.151Z,27.90
2017-08-02T08:08:02.710Z,28.60
2017-08-02T08:10:30.240Z,30.00
2017-08-02T08:12:57.766Z,30.80
2017-08-02T08:15:26.065Z,31.00
2017-08-02T08:17:53.596Z,30.90
2017-08-02T08:20:21.136Z,30.80
2017-08-02T08:22:48.756Z,30.70
2017-08-02T08:25:16.251Z,31.10
2017-08-02T08:27:43.836Z,31.30
2017-08-02T08:30:11.404Z,30.80
2017-08-02T08:32:38.967Z,29.90
2017-08-02T08:35:07.240Z,29.00
2017-08-02T08:37:35.517Z,28.60
2017-08-02T08:40:03.884Z,28.10
2017-08-02T08:42:31.406Z,28.10
2017-08-02T08:44:59.033Z,28.30
2017-08-02T08:47:27.539Z,27.10
2017-08-02T08:49:55.088Z,27.10
2017-08-02T08:52:22.602Z,26.80
2017-08-02T08:54:50.134Z,26.50
2017-08-02T08:57:17.705Z,26.50
2017-08-02T08:59:45.323Z,26.80
2017-08-02T09:02:12.887Z,26.90
2017-08-02T09:04:40.445Z,27.10
2017-08-02T09:07:07.972Z,27.30
2017-08-02T09:09:35.512Z,26.90
2017-08-02T09:12:03.037Z,27.30
2017-08-02T09:14:30.713Z,27.40
2017-08-02T09:16:58.259Z,27.50
2017-08-02T09:19:25.784Z,27.80
2017-08-02T09:21:53.371Z,28.00
2017-08-02T09:24:20.953Z,27.70
2017-08-02T09:26:48.503Z,27.30
2017-08-02T09:29:16.027Z,27.00
2017-08-02T09:31:43.588Z,26.60
2017-08-02T09:34:11.908Z,27.30
2017-08-02T09:36:39.475Z,27.30
2017-08-02T09:39:07.037Z,27.80
2017-08-02T09:41:34.598Z,27.50
2017-08-02T09:44:02.119Z,27.30
2017-08-02T09:46:30.437Z,27.60
2017-08-02T09:48:57.956Z,27.60
2017-08-02T09:51:26.262Z,27.90
2017-08-02T09:53:53.823Z,27.90
2017-08-02T09:56:21.347Z,28.20
2017-08-02T09:58:48.920Z,28.40
2017-08-02T10:01:16.517Z,28.90
2017-08-02T10:03:44.099Z,29.20
2017-08-02T10:06:12.046Z,29.50
2017-08-02T10:08:39.612Z,29.70
2017-08-02T10:11:07.137Z,29.40
2017-08-02T10:13:34.688Z,29.90
2017-08-02T10:16:02.200Z,30.60
2017-08-02T10:18:29.759Z,30.70
2017-08-02T10:20:57.349Z,31.10
2017-08-02T10:23:25.644Z,30.70
2017-08-02T10:25:53.233Z,30.70
2017-08-02T10:28:20.771Z,30.90
2017-08-02T10:30:48.341Z,30.60
2017-08-02T10:33:15.910Z,30.90
2017-08-02T10:35:43.446Z,31.00
2017-08-02T10:38:10.975Z,31.30
2017-08-02T10:43:12.340Z,31.60
2017-08-02T10:45:39.891Z,31.20
2017-08-02T10:48:07.428Z,31.20
2017-08-02T10:50:34.975Z,30.90
2017-08-02T10:53:02.511Z,30.80
2017-08-02T10:55:30.095Z,30.40
2017-08-02T10:57:57.608Z,30.30
2017-08-02T11:00:25.115Z,30.70
2017-08-02T11:02:52.675Z,31.00
2017-08-02T11:05:20.236Z,31.20
2017-08-02T11:07:47.803Z,30.90
2017-08-02T11:10:15.343Z,30.70
2017-08-02T11:12:42.959Z,30.40
2017-08-02T11:15:11.251Z,28.60
2017-08-02T11:17:39.578Z,28.50
2017-08-02T11:20:07.196Z,28.50
2017-08-02T11:22:35.508Z,29.10
2017-08-02T11:25:03.040Z,29.10
2017-08-02T11:27:30.602Z,29.40
2017-08-02T11:29:58.889Z,29.80
2017-08-02T11:32:26.492Z,29.70
2017-08-02T11:34:54.015Z,30.00
2017-08-02T11:37:21.558Z,30.10
2017-08-02T11:39:49.965Z,30.20
2017-08-02T11:42:17.505Z,30.20
2017-08-02T11:44:45.047Z,29.60
2017-08-02T11:47:13.335Z,30.70
2017-08-02T11:49:42.012Z,30.60
2017-08-02T11:52:10.315Z,31.10
2017-08-02T11:54:37.858Z,31.10
2017-08-02T11:57:06.148Z,31.70
2017-08-02T11:59:33.704Z,31.70
2017-08-02T12:02:01.330Z,31.80
2017-08-02T12:04:29.122Z,32.10
2017-08-02T12:06:57.419Z,31.70
2017-08-02T12:09:24.994Z,31.60
2017-08-02T12:11:52.536Z,31.70
2017-08-02T12:14:20.061Z,31.50
2017-08-02T12:16:48.431Z,30.80
2017-08-02T12:19:15.997Z,30.70
2017-08-02T12:21:43.586Z,30.50
2017-08-02T12:24:11.171Z,30.50
2017-08-02T12:26:38.737Z,29.90
2017-08-02T12:29:06.251Z,29.90
2017-08-02T12:31:34.558Z,30.60
2017-08-02T12:34:02.095Z,30.50
2017-08-02T12:36:30.404Z,30.60
2017-08-02T12:38:57.970Z,30.60
2017-08-02T12:41:25.580Z,30.40
2017-08-02T12:43:53.099Z,29.80
2017-08-02T12:46:20.679Z,29.40
2017-08-02T12:48:48.219Z,30.00
2017-08-02T12:51:15.781Z,30.10
2017-08-02T12:53:43.306Z,30.40
2017-08-02T12:56:10.850Z,30.40
2017-08-02T12:58:39.179Z,31.00
2017-08-02T13:01:06.711Z,31.00
2017-08-02T13:03:34.268Z,30.90
2017-08-02T13:06:02.270Z,31.20
2017-08-02T13:08:29.831Z,31.10
2017-08-02T13:10:57.403Z,30.90
2017-08-02T13:13:24.952Z,30.10
2017-08-02T13:15:52.521Z,29.90
2017-08-02T13:18:20.075Z,30.00
2017-08-02T13:20:47.643Z,30.20
2017-08-02T13:23:15.232Z,30.40
2017-08-02T13:25:43.530Z,30.10
2017-08-02T13:28:11.096Z,30.10
2017-08-02T13:30:38.692Z,29.80
2017-08-02T13:33:06.236Z,30.00
2017-08-02T13:35:33.776Z,30.40
2017-08-02T13:38:01.350Z,30.60
2017-08-02T13:40:28.881Z,30.10
2017-08-02T13:42:56.408Z,30.10
2017-08-02T13:45:23.975Z,30.60
2017-08-02T13:47:51.843Z,30.60
2017-08-02T13:50:19.373Z,30.90
2017-08-02T13:52:46.920Z,30.90
2017-08-02T13:55:14.496Z,30.60
2017-08-02T13:57:42.035Z,30.20
2017-08-02T14:00:09.588Z,30.10
2017-08-02T14:02:37.110Z,30.40
2017-08-02T14:05:04.671Z,30.70
2017-08-02T14:07:32.220Z,30.30
2017-08-02T14:09:59.771Z,29.90
2017-08-02T14:12:27.378Z,30.20
2017-08-02T14:14:54.936Z,30.50
2017-08-02T14:17:22.502Z,30.70
2017-08-02T14:19:50.011Z,30.50
2017-08-02T14:22:17.592Z,30.70
2017-08-02T14:24:45.175Z,30.60
2017-08-02T14:27:12.749Z,30.70
2017-08-02T14:29:40.977Z,30.70
2017-08-02T14:32:08.551Z,30.80
2017-08-02T14:34:36.881Z,30.60
2017-08-02T14:37:04.429Z,30.60
2017-08-02T14:39:31.957Z,30.50
2017-08-02T14:42:00.347Z,30.00
2017-08-02T14:44:27.905Z,30.00
2017-08-02T14:46:56.240Z,29.90
2017-08-02T14:49:23.818Z,29.90
2017-08-02T14:51:51.395Z,29.70
2017-08-02T14:54:19.834Z,29.80
2017-08-02T14:56:47.391Z,29.70
2017-08-02T14:59:14.961Z,29.70
2017-08-02T15:01:42.475Z,29.40
2017-08-02T15:04:10.284Z,29.40
2017-08-02T15:06:37.834Z,29.00
2017-08-02T15:09:05.406Z,29.30
2017-08-02T15:11:32.954Z,28.60
2017-08-02T15:14:00.479Z,28.60
2017-08-02T15:16:27.986Z,28.70
2017-08-02T15:18:55.547Z,28.80
2017-08-02T15:21:23.408Z,29.00
2017-08-02T15:23:50.982Z,29.00
2017-08-02T15:26:18.503Z,28.70
2017-08-02T15:28:46.027Z,28.50
2017-08-02T15:31:14.350Z,27.80
2017-08-02T15:33:41.904Z,27.80
2017-08-02T15:36:09.470Z,27.80
2017-08-02T15:38:37.012Z,28.00
2017-08-02T15:41:04.552Z,27.80
2017-08-02T15:43:32.087Z,27.60
2017-08-02T15:45:59.634Z,27.60
2017-08-02T15:48:27.135Z,27.80
2017-08-02T15:50:54.722Z,27.80
2017-08-02T15:53:22.275Z,28.00
2017-08-02T15:55:49.826Z,27.90
2017-08-02T15:58:17.351Z,27.80
2017-08-02T16:00:44.914Z,28.00
2017-08-02T16:03:13.243Z,28.30
2017-08-02T16:05:40.818Z,28.30
2017-08-02T16:08:08.353Z,28.40
2017-08-02T16:10:35.879Z,28.40
2017-08-02T16:13:03.439Z,28.00
2017-08-02T16:15:31.019Z,27.80
2017-08-02T16:17:58.560Z,27.80
2017-08-02T16:20:26.946Z,27.90
2017-08-02T16:22:54.491Z,27.90
2017-08-02T16:25:22.972Z,27.90
2017-08-02T16:27:50.517Z,27.90
2017-08-02T16:30:18.071Z,27.80
2017-08-02T16:32:45.626Z,27.70
2017-08-02T16:35:13.186Z,27.60
2017-08-02T16:37:40.728Z,27.80
2017-08-02T16:40:08.296Z,27.90
2017-08-02T16:42:35.866Z,28.00
2017-08-02T16:45:03.411Z,27.80
2017-08-02T16:47:30.989Z,27.50
2017-08-02T16:49:59.550Z,27.30
2017-08-02T16:52:27.175Z,27.50
2017-08-02T16:54:55.465Z,27.70
2017-08-02T16:57:23.031Z,27.70
2017-08-02T16:59:50.583Z,27.80
2017-08-02T17:02:18.184Z,27.90
2017-08-02T17:04:45.764Z,27.90
2017-08-02T17:07:13.327Z,27.80
2017-08-02T17:09:41.651Z,27.90
2017-08-02T17:12:09.219Z,27.90
2017-08-02T17:14:36.769Z,28.00
2017-08-02T17:17:04.337Z,28.00
2017-08-02T17:19:31.859Z,27.80
2017-08-02T17:21:59.411Z,27.80
2017-08-02T17:24:26.954Z,27.80
2017-08-02T17:26:54.580Z,27.90
2017-08-02T17:29:22.106Z,27.90
2017-08-02T17:31:50.447Z,27.90
2017-08-02T17:34:17.956Z,27.90
2017-08-02T17:36:45.539Z,28.00
2017-08-02T17:39:13.083Z,27.90
2017-08-02T17:41:40.639Z,27.90
2017-08-02T17:44:08.204Z,27.90
2017-08-02T17:46:35.759Z,27.80
2017-08-02T17:49:03.286Z,27.80
2017-08-02T17:51:30.874Z,27.30
2017-08-02T17:53:58.741Z,27.20
2017-08-02T17:56:26.420Z,27.20
2017-08-02T17:58:53.979Z,27.20
2017-08-02T18:01:21.539Z,27.30
2017-08-02T18:03:49.071Z,27.30
2017-08-02T18:06:16.600Z,27.40
2017-08-02T18:08:44.123Z,27.40
2017-08-02T18:11:11.682Z,27.30
2017-08-02T18:13:39.232Z,27.40
2017-08-02T18:16:06.829Z,27.30
2017-08-02T18:18:34.635Z,27.10
2017-08-02T18:21:02.191Z,26.90
2017-08-02T18:23:29.745Z,26.90
2017-08-02T18:25:57.325Z,26.90
2017-08-02T18:28:25.606Z,26.70
2017-08-02T18:30:53.162Z,26.70
2017-08-02T18:33:20.731Z,26.90
2017-08-02T18:35:48.301Z,26.90
2017-08-02T18:38:15.852Z,27.10
2017-08-02T18:40:43.391Z,27.10
2017-08-02T18:43:10.956Z,26.80
2017-08-02T18:45:38.498Z,26.80
2017-08-02T18:48:06.048Z,26.80
2017-08-02T18:50:33.598Z,26.60
2017-08-02T18:53:01.994Z,26.60
2017-08-02T18:55:29.543Z,26.60
2017-08-02T18:57:57.102Z,26.60
2017-08-02T19:00:24.625Z,26.60
2017-08-02T19:02:52.425Z,26.70
2017-08-02T19:05:20.005Z,26.60
2017-08-02T19:07:47.608Z,26.60
2017-08-02T19:10:15.187Z,26.60
2017-08-02T19:12:42.734Z,26.60
2017-08-02T19:15:10.274Z,26.60
2017-08-02T19:17:37.799Z,26.40
2017-08-02T19:20:05.367Z,26.30
2017-08-02T19:22:32.913Z,26.40
2017-08-02T19:25:00.494Z,26.30
2017-08-02T19:27:28.047Z,26.20
2017-08-02T19:29:55.576Z,26.20
2017-08-02T19:32:23.201Z,26.20
2017-08-02T19:34:50.794Z,26.00
2017-08-02T19:37:18.346Z,25.90
2017-08-02T19:39:45.913Z,25.90
2017-08-02T19:42:13.474Z,25.90
2017-08-02T19:44:41.046Z,25.80
2017-08-02T19:47:08.592Z,25.70
2017-08-02T19:49:36.134Z,25.40
2017-08-02T19:52:03.722Z,25.10
2017-08-02T19:54:31.502Z,24.80
2017-08-02T19:56:59.062Z,24.90
2017-08-02T19:59:26.617Z,24.60
2017-08-02T20:01:54.172Z,24.70
2017-08-02T20:04:21.721Z,25.00
2017-08-02T20:06:49.262Z,25.10
2017-08-02T20:09:16.813Z,25.00
2017-08-02T20:11:44.339Z,24.80
2017-08-02T20:14:11.847Z,24.80
2017-08-02T20:16:39.386Z,24.90
2017-08-02T20:19:06.973Z,25.10
2017-08-02T20:21:34.555Z,25.20
2017-08-02T20:24:05.786Z,25.20
2017-08-02T20:26:33.314Z,25.20
2017-08-02T20:29:00.882Z,25.20
2017-08-02T20:31:28.440Z,25.20
2017-08-02T20:33:56.066Z,25.20
2017-08-02T20:36:24.760Z,25.20
2017-08-02T20:38:53.104Z,25.20
2017-08-02T20:41:20.750Z,25.20
2017-08-02T20:43:48.336Z,25.10
2017-08-02T20:46:15.897Z,25.10
2017-08-02T20:48:43.474Z,25.10
2017-08-02T20:51:11.011Z,25.00
2017-08-02T20:53:38.575Z,25.10
2017-08-02T20:56:06.172Z,25.10
2017-08-02T20:58:33.792Z,25.00
2017-08-02T21:01:01.332Z,25.10
2017-08-02T21:03:28.927Z,25.20
2017-08-02T21:05:57.251Z,25.00
2017-08-02T21:08:24.849Z,25.00
2017-08-02T21:10:52.435Z,25.10
2017-08-02T21:13:19.977Z,24.90
2017-08-02T21:15:47.508Z,24.80
2017-08-02T21:18:15.080Z,24.80
2017-08-02T21:20:43.207Z,24.60
2017-08-02T21:23:10.791Z,24.50
2017-08-02T21:25:38.340Z,24.30
2017-08-02T21:28:05.904Z,24.20
2017-08-02T21:30:33.459Z,24.20
2017-08-02T21:33:01.029Z,24.40
2017-08-02T21:35:28.631Z,24.40
2017-08-02T21:37:56.158Z,24.50
2017-08-02T21:40:23.723Z,24.60
2017-08-02T21:42:52.411Z,24.70
2017-08-02T21:45:20.708Z,24.70
2017-08-02T21:47:48.327Z,24.70
2017-08-02T21:50:15.875Z,24.80
2017-08-02T21:52:43.444Z,24.70
2017-08-02T21:55:11.023Z,24.80
2017-08-02T21:57:38.559Z,24.80
2017-08-02T22:00:06.088Z,24.80
2017-08-02T22:02:34.402Z,24.80
2017-08-02T22:05:01.955Z,24.80
2017-08-02T22:07:30.342Z,24.80
2017-08-02T22:09:57.894Z,24.80
2017-08-02T22:12:26.222Z,24.80
2017-08-02T22:14:53.755Z,24.80
2017-08-02T22:17:21.410Z,24.80
2017-08-02T22:19:48.994Z,24.90
2017-08-02T22:22:16.542Z,24.80
2017-08-02T22:24:44.099Z,24.80
2017-08-02T22:27:11.672Z,24.90
2017-08-02T22:29:39.242Z,24.90
2017-08-02T22:32:06.809Z,24.90
2017-08-02T22:34:34.411Z,24.90
2017-08-02T22:37:01.965Z,24.90
2017-08-02T22:39:30.262Z,24.80
2017-08-02T22:41:57.807Z,24.80
2017-08-02T22:44:26.183Z,24.80
2017-08-02T22:46:53.755Z,24.80
2017-08-02T22:49:21.309Z,24.90
2017-08-02T22:51:49.603Z,24.90
2017-08-02T22:54:17.222Z,24.90
2017-08-02T22:56:44.770Z,24.90
2017-08-02T22:59:12.330Z,24.90
2017-08-02T23:01:39.843Z,24.90
2017-08-02T23:04:07.413Z,24.90
2017-08-02T23:06:34.949Z,24.90
2017-08-02T23:09:04.173Z,24.90
2017-08-02T23:11:31.930Z,24.90
2017-08-02T23:13:59.500Z,24.80
2017-08-02T23:16:27.508Z,24.90
2017-08-02T23:18:55.632Z,24.90
2017-08-02T23:21:23.242Z,24.90
2017-08-02T23:23:50.906Z,25.00
2017-08-02T23:26:18.435Z,25.00
2017-08-02T23:28:46.050Z,25.00
2017-08-02T23:31:14.388Z,24.90
2017-08-02T23:33:41.928Z,24.80
2017-08-02T23:36:09.455Z,24.90
2017-08-02T23:38:37.762Z,25.00
2017-08-02T23:41:05.288Z,25.00
2017-08-02T23:43:32.830Z,25.00
2017-08-02T23:46:01.129Z,25.10
2017-08-02T23:48:29.453Z,25.10
2017-08-02T23:50:56.971Z,25.10
2017-08-02T23:53:24.530Z,25.10
2017-08-02T23:55:52.069Z,24.90
2017-08-02T23:58:19.610Z,24.90
